createdAt,value
2019-04-05T00:01:54.017Z,100152.55
2019-04-05T00:04:22.497Z,100158.17
2019-04-05T00:06:51.013Z,100163.80
2019-04-05T00:09:19.481Z,100165.97
2019-04-05T00:11:47.951Z,100169.44
2019-04-05T00:14:16.449Z,100165.52
2019-04-05T00:16:44.913Z,100170.28
2019-04-05T00:19:13.380Z,100172.46
2019-04-05T00:21:41.875Z,100173.30
2019-04-05T00:24:10.344Z,100176.34
2019-04-05T00:26:38.813Z,100179.80
2019-04-05T00:29:07.330Z,100174.19
2019-04-05T00:31:35.792Z,100172.02
2019-04-05T00:34:04.261Z,100175.03
2019-04-05T00:36:32.836Z,100168.55
2019-04-05T00:39:01.307Z,100172.86
2019-04-05T00:41:32.824Z,100173.72
2019-04-05T00:44:00.002Z,100172.83
2019-04-05T00:46:28.744Z,100172.84
2019-04-05T00:48:57.196Z,100175.87
2019-04-05T00:51:25.715Z,100177.59
2019-04-05T00:53:54.182Z,100180.20
2019-04-05T00:56:22.795Z,100179.33
2019-04-05T00:58:51.297Z,100183.20
2019-04-05T01:01:19.764Z,100182.34
2019-04-05T01:03:48.251Z,100179.30
2019-04-05T01:06:16.749Z,100178.01
2019-04-05T01:08:45.212Z,100182.32
2019-04-05T01:11:13.744Z,100180.14
2019-04-05T01:13:42.324Z,100188.36
2019-04-05T01:16:10.802Z,100184.44
2019-04-05T01:18:39.296Z,100190.49
2019-04-05T01:21:09.703Z,100187.05
2019-04-05T01:23:38.440Z,100192.66
2019-04-05T01:26:06.918Z,100187.02
2019-04-05T01:28:35.413Z,100184.85
2019-04-05T01:31:03.955Z,100185.70
2019-04-05T01:33:32.433Z,100187.00
2019-04-05T01:36:00.944Z,100188.73
2019-04-05T01:38:29.570Z,100184.80
2019-04-05T01:40:58.112Z,100185.66
2019-04-05T01:43:26.696Z,100190.41
2019-04-05T01:45:56.253Z,100188.69
2019-04-05T01:48:24.910Z,100187.38
2019-04-05T01:50:53.498Z,100186.92
2019-04-05T01:53:21.980Z,100186.48
2019-04-05T01:55:50.454Z,100186.50
2019-04-05T01:58:18.957Z,100187.75
2019-04-05T02:00:47.500Z,100191.64
2019-04-05T02:03:16.033Z,100189.06
2019-04-05T02:05:44.538Z,100189.91
2019-04-05T02:08:13.086Z,100186.88
2019-04-05T02:10:41.624Z,100186.85
2019-04-05T02:13:10.365Z,100194.62
2019-04-05T02:15:38.995Z,100195.05
2019-04-05T02:18:07.530Z,100194.16
2019-04-05T02:20:36.033Z,100193.71
2019-04-05T02:23:04.577Z,100190.70
2019-04-05T02:25:33.031Z,100201.91
2019-04-05T02:28:01.556Z,100200.16
2019-04-05T02:30:30.030Z,100200.61
2019-04-05T02:32:58.571Z,100201.91
2019-04-05T02:35:27.150Z,100203.62
2019-04-05T02:37:55.674Z,100204.05
2019-04-05T02:40:26.456Z,100201.86
2019-04-05T02:42:56.003Z,100201.41
2019-04-05T02:45:25.048Z,100212.66
2019-04-05T02:47:55.530Z,100210.91
2019-04-05T02:50:27.271Z,100217.83
2019-04-05T02:52:58.766Z,100222.56
2019-04-05T02:55:28.046Z,100223.41
2019-04-05T02:57:57.914Z,100225.98
2019-04-05T03:00:26.560Z,100231.58
2019-04-05T03:02:55.528Z,100231.59
2019-04-05T03:05:24.011Z,100232.42
2019-04-05T03:07:52.841Z,100232.86
2019-04-05T03:10:51.674Z,100233.70
2019-04-05T03:13:20.777Z,100234.09
2019-04-05T03:15:49.311Z,100237.52
2019-04-05T03:18:17.907Z,100238.34
2019-04-05T03:20:46.567Z,100237.89
2019-04-05T03:23:15.117Z,100243.05
2019-04-05T03:25:43.903Z,100241.74
2019-04-05T03:28:12.444Z,100235.66
2019-04-05T03:30:41.396Z,100246.00
2019-04-05T03:33:09.900Z,100249.43
2019-04-05T03:35:38.437Z,100246.39
2019-04-05T03:38:07.676Z,100245.50
2019-04-05T03:40:36.346Z,100245.91
2019-04-05T03:43:04.897Z,100247.17
2019-04-05T03:45:33.375Z,100248.02
2019-04-05T03:48:02.341Z,100254.47
2019-04-05T03:50:31.049Z,100253.58
2019-04-05T03:53:00.156Z,100252.69
2019-04-05T03:55:28.728Z,100256.55
2019-04-05T03:57:57.208Z,100262.62
2019-04-05T04:00:25.704Z,100260.44
2019-04-05T04:02:54.314Z,100266.91
2019-04-05T04:05:22.797Z,100258.69
2019-04-05T04:07:51.566Z,100266.03
2019-04-05T04:10:20.300Z,100260.83
2019-04-05T04:12:48.787Z,100272.02
2019-04-05T04:15:17.324Z,100268.53
2019-04-05T04:17:46.321Z,100273.26
2019-04-05T04:20:36.049Z,100272.80
2019-04-05T04:23:05.885Z,100273.23
2019-04-05T04:25:34.612Z,100273.20
2019-04-05T04:28:03.157Z,100276.20
2019-04-05T04:30:32.590Z,100267.53
2019-04-05T04:33:01.640Z,100272.28
2019-04-05T04:35:30.115Z,100277.44
2019-04-05T04:37:58.638Z,100280.45
2019-04-05T04:40:27.178Z,100277.00
2019-04-05T04:42:56.311Z,100281.30
2019-04-05T04:45:25.556Z,100289.06
2019-04-05T04:47:54.095Z,100295.53
2019-04-05T04:50:23.120Z,100295.97
2019-04-05T04:52:52.243Z,100296.39
2019-04-05T04:55:20.793Z,100293.41
2019-04-05T04:57:49.336Z,100297.28
2019-04-05T05:00:18.096Z,100300.73
2019-04-05T05:02:46.821Z,100301.63
2019-04-05T05:05:15.461Z,100308.56
2019-04-05T05:07:43.972Z,100306.00
2019-04-05T05:10:12.503Z,100306.90
2019-04-05T05:12:41.349Z,100303.91
2019-04-05T05:15:10.783Z,100307.82
2019-04-05T05:17:39.317Z,100310.44
2019-04-05T05:20:08.053Z,100287.39
2019-04-05T05:22:37.118Z,100315.27
2019-04-05T05:25:07.060Z,100319.19
2019-04-05T05:27:35.540Z,100321.37
2019-04-05T05:30:06.150Z,100317.53
2019-04-05T05:32:35.330Z,100325.80
2019-04-05T05:35:04.944Z,100323.28
2019-04-05T05:37:33.508Z,100326.38
2019-04-05T05:40:02.055Z,100333.34
2019-04-05T05:42:30.522Z,100337.73
2019-04-05T05:44:59.015Z,100336.91
2019-04-05T05:47:27.492Z,100339.59
2019-04-05T05:49:55.969Z,100341.79
2019-04-05T05:52:24.932Z,100344.86
2019-04-05T05:54:54.436Z,100345.34
2019-04-05T05:57:22.902Z,100338.47
2019-04-05T05:59:51.445Z,100343.31
2019-04-05T06:02:19.984Z,100342.91
2019-04-05T06:04:48.467Z,100346.00
2019-04-05T06:07:19.963Z,100345.63
2019-04-05T06:09:47.778Z,100345.67
2019-04-05T06:12:16.419Z,100345.30
2019-04-05T06:14:44.928Z,100346.66
2019-04-05T06:17:13.389Z,100347.16
2019-04-05T06:19:41.864Z,100344.19
2019-04-05T06:22:10.362Z,100346.39
2019-04-05T06:24:38.847Z,100342.97
2019-04-05T06:27:07.302Z,100336.95
2019-04-05T06:29:35.826Z,100341.32
2019-04-05T06:32:04.368Z,100337.91
2019-04-05T06:34:32.847Z,100347.08
2019-04-05T06:37:01.346Z,100345.37
2019-04-05T06:39:29.847Z,100349.30
2019-04-05T06:41:58.314Z,100347.58
2019-04-05T06:44:28.143Z,100349.34
2019-04-05T06:46:56.781Z,100349.32
2019-04-05T06:49:25.257Z,100350.63
2019-04-05T06:51:53.796Z,100352.80
2019-04-05T06:54:22.290Z,100351.09
2019-04-05T06:56:50.894Z,100354.97
2019-04-05T06:59:19.489Z,100349.77
2019-04-05T07:01:48.073Z,100350.20
2019-04-05T07:04:16.621Z,100359.70
2019-04-05T07:06:45.135Z,100359.69
2019-04-05T07:09:13.622Z,100354.07
2019-04-05T07:11:42.099Z,100359.66
2019-04-05T07:14:10.682Z,100357.88
2019-04-05T07:16:39.161Z,100359.58
2019-04-05T07:19:07.639Z,100359.52
2019-04-05T07:21:36.177Z,100360.33
2019-04-05T07:24:04.735Z,100363.34
2019-04-05T07:26:33.223Z,100365.44
2019-04-05T07:29:01.726Z,100366.66
2019-04-05T07:31:30.208Z,100366.62
2019-04-05T07:33:58.747Z,100373.05
2019-04-05T07:36:27.254Z,100369.09
2019-04-05T07:38:55.736Z,100375.52
2019-04-05T07:41:24.230Z,100378.48
2019-04-05T07:43:52.738Z,100381.84
2019-04-05T07:46:21.215Z,100377.86
2019-04-05T07:48:49.690Z,100380.80
2019-04-05T07:51:18.214Z,100386.36
2019-04-05T07:53:46.705Z,100379.34
2019-04-05T07:56:15.172Z,100379.70
2019-04-05T07:58:44.003Z,100376.19
2019-04-05T08:01:12.483Z,100377.42
2019-04-05T08:03:40.961Z,100383.50
2019-04-05T08:06:09.506Z,100380.39
2019-04-05T08:08:43.838Z,100377.28
2019-04-05T08:11:12.378Z,100382.50
2019-04-05T08:13:42.468Z,100375.47
2019-04-05T08:16:13.165Z,100380.66
2019-04-05T08:18:41.817Z,100380.19
2019-04-05T08:21:10.327Z,100382.26
2019-04-05T08:23:38.809Z,100385.68
2019-04-05T08:26:07.419Z,100386.53
2019-04-05T08:28:35.935Z,100393.92
2019-04-05T08:31:04.406Z,100385.17
2019-04-05T08:33:32.890Z,100389.55
2019-04-05T08:36:01.407Z,100390.81
2019-04-05T08:38:29.875Z,100392.56
2019-04-05T08:40:58.378Z,100398.61
2019-04-05T08:43:26.898Z,100403.84
2019-04-05T08:45:55.375Z,100402.48
2019-04-05T08:48:23.858Z,100400.72
2019-04-05T08:50:52.355Z,100398.50
2019-04-05T08:53:20.817Z,100403.23
2019-04-05T08:55:49.284Z,100398.35
2019-04-05T08:58:17.811Z,100404.84
2019-04-05T09:00:47.299Z,100399.09
2019-04-05T09:03:15.781Z,100405.12
2019-04-05T09:05:44.430Z,100400.67
2019-04-05T09:08:12.899Z,100398.35
2019-04-05T09:10:41.379Z,100399.13
2019-04-05T09:13:09.890Z,100395.99
2019-04-05T09:15:38.370Z,100399.34
2019-04-05T09:18:06.847Z,100395.74
2019-04-05T09:20:35.368Z,100393.48
2019-04-05T09:23:03.825Z,100400.75
2019-04-05T09:25:32.292Z,100402.33
2019-04-05T09:28:00.901Z,100397.41
2019-04-05T09:30:29.324Z,100395.52
2019-04-05T09:32:57.795Z,100394.49
2019-04-05T09:35:26.287Z,100395.21
2019-04-05T09:37:54.772Z,100398.09
2019-04-05T09:40:23.246Z,100397.07
2019-04-05T09:42:51.771Z,100392.98
2019-04-05T09:45:20.242Z,100398.53
2019-04-05T09:47:48.710Z,100395.31
2019-04-05T09:50:17.406Z,100397.36
2019-04-05T09:52:47.672Z,100392.86
2019-04-05T09:55:16.145Z,100401.48
2019-04-05T09:57:44.649Z,100401.77
2019-04-05T10:00:17.858Z,100397.73
2019-04-05T10:02:47.048Z,100397.19
2019-04-05T10:05:15.540Z,100394.42
2019-04-05T10:07:54.096Z,100391.30
2019-04-05T10:10:14.276Z,100392.05
2019-04-05T10:12:42.787Z,100390.66
2019-04-05T10:15:11.443Z,100388.42
2019-04-05T10:17:39.898Z,100393.97
2019-04-05T10:20:08.467Z,100388.59
2019-04-05T10:22:36.939Z,100395.44
2019-04-05T10:25:07.008Z,100392.17
2019-04-05T10:27:35.524Z,100393.70
2019-04-05T10:30:09.670Z,100390.94
2019-04-05T10:32:38.157Z,100390.41
2019-04-05T10:35:07.223Z,100392.87
2019-04-05T10:37:35.693Z,100400.16
2019-04-05T10:40:05.763Z,100400.91
2019-04-05T10:42:36.499Z,100399.94
2019-04-05T10:45:09.684Z,100405.95
2019-04-05T10:47:38.157Z,100402.28
2019-04-05T10:50:09.061Z,100410.06
2019-04-05T10:52:37.608Z,100409.12
2019-04-05T10:55:07.219Z,100415.63
2019-04-05T10:57:35.733Z,100416.92
2019-04-05T11:00:06.846Z,100415.52
2019-04-05T11:02:35.392Z,100418.48
2019-04-05T11:05:04.109Z,100427.58
2019-04-05T11:07:34.968Z,100423.11
2019-04-05T11:10:02.937Z,100419.97
2019-04-05T11:12:31.446Z,100424.20
2019-04-05T11:14:59.909Z,100421.02
2019-04-05T11:17:28.375Z,100419.55
2019-04-05T11:19:56.870Z,100419.43
2019-04-05T11:22:25.336Z,100427.14
2019-04-05T11:24:53.812Z,100430.51
2019-04-05T11:27:22.346Z,100427.20
2019-04-05T11:29:50.831Z,100422.17
2019-04-05T11:32:19.439Z,100420.17
2019-04-05T11:34:48.012Z,100425.67
2019-04-05T11:37:16.881Z,100424.13
2019-04-05T11:39:48.565Z,100422.58
2019-04-05T11:42:17.779Z,100424.16
2019-04-05T11:44:47.323Z,100427.98
2019-04-05T11:47:19.028Z,100422.58
2019-04-05T11:49:46.085Z,100429.52
2019-04-05T11:52:14.569Z,100429.59
2019-04-05T11:54:43.831Z,100438.34
2019-04-05T11:57:15.950Z,100431.80
2019-04-05T11:59:44.421Z,100429.16
2019-04-05T12:02:16.956Z,100430.48
2019-04-05T12:04:45.477Z,100431.34
2019-04-05T12:07:14.254Z,100435.25
2019-04-05T12:09:42.729Z,100434.69
2019-04-05T12:12:11.309Z,100450.86
2019-04-05T12:14:39.847Z,100438.64
2019-04-05T12:17:09.687Z,100439.95
2019-04-05T12:19:38.400Z,100445.75
2019-04-05T12:22:09.094Z,100434.89
2019-04-05T12:24:37.543Z,100441.94
2019-04-05T12:27:06.044Z,100433.61
2019-04-05T12:29:34.516Z,100435.81
2019-04-05T12:32:03.053Z,100429.59
2019-04-05T12:34:31.626Z,100437.85
2019-04-05T12:37:00.087Z,100435.58
2019-04-05T12:39:28.548Z,100437.19
2019-04-05T12:41:57.067Z,100436.13
2019-04-05T12:44:25.527Z,100441.79
2019-04-05T12:46:53.994Z,100442.15
2019-04-05T12:49:22.500Z,100439.05
2019-04-05T12:51:50.986Z,100441.72
2019-04-05T12:54:19.430Z,100437.73
2019-04-05T12:56:47.929Z,100429.33
2019-04-05T12:59:16.405Z,100430.51
2019-04-05T13:01:45.657Z,100433.92
2019-04-05T13:04:15.143Z,100434.53
2019-04-05T13:06:43.603Z,100429.98
2019-04-05T13:09:13.317Z,100431.55
2019-04-05T13:11:42.003Z,100432.79
2019-04-05T13:14:10.656Z,100433.92
2019-04-05T13:16:39.127Z,100428.51
2019-04-05T13:19:07.643Z,100439.77
2019-04-05T13:21:36.110Z,100430.11
2019-04-05T13:24:07.054Z,100425.61
2019-04-05T13:26:36.767Z,100435.77
2019-04-05T13:29:05.130Z,100430.25
2019-04-05T13:31:33.600Z,100441.69
2019-04-05T13:34:02.096Z,100439.55
2019-04-05T13:36:30.575Z,100427.41
2019-04-05T13:39:00.358Z,100433.64
2019-04-05T13:41:31.267Z,100428.48
2019-04-05T13:44:01.641Z,100425.38
2019-04-05T13:46:29.531Z,100427.16
2019-04-05T13:48:58.024Z,100430.19
2019-04-05T13:51:28.032Z,100430.19
2019-04-05T13:53:56.690Z,100426.63
2019-04-05T13:56:25.278Z,100429.80
2019-04-05T13:58:53.755Z,100426.27
2019-04-05T14:01:22.227Z,100424.95
2019-04-05T14:03:50.788Z,100425.41
2019-04-05T14:06:19.290Z,100421.89
2019-04-05T14:08:47.764Z,100426.63
2019-04-05T14:11:16.396Z,100422.63
2019-04-05T14:13:44.855Z,100422.24
2019-04-05T14:16:13.395Z,100420.92
2019-04-05T14:18:45.188Z,100419.42
2019-04-05T14:21:12.201Z,100417.72
2019-04-05T14:23:40.670Z,100418.53
2019-04-05T14:26:10.076Z,100413.54
2019-04-05T14:28:38.541Z,100427.97
2019-04-05T14:31:07.011Z,100417.50
2019-04-05T14:33:35.525Z,100419.23
2019-04-05T14:36:03.995Z,100415.32
2019-04-05T14:38:32.468Z,100419.70
2019-04-05T14:41:01.055Z,100412.22
2019-04-05T14:43:29.522Z,100414.43
2019-04-05T14:45:57.988Z,100416.99
2019-04-05T14:48:28.021Z,100415.98
2019-04-05T14:50:57.918Z,100419.80
2019-04-05T14:53:27.027Z,100416.66
2019-04-05T14:55:59.059Z,100423.14
2019-04-05T14:58:25.772Z,100414.27
2019-04-05T15:00:54.255Z,100418.06
2019-04-05T15:03:22.844Z,100417.95
2019-04-05T15:05:51.326Z,100424.39
2019-04-05T15:08:20.673Z,100417.22
2019-04-05T15:10:51.350Z,100417.99
2019-04-05T15:13:20.486Z,100418.84
2019-04-05T15:15:48.956Z,100426.69
2019-04-05T15:18:19.601Z,100422.30
2019-04-05T15:20:47.655Z,100426.77
2019-04-05T15:23:16.128Z,100422.34
2019-04-05T15:25:44.664Z,100421.02
2019-04-05T15:28:13.140Z,100422.84
2019-04-05T15:30:41.610Z,100429.95
2019-04-05T15:33:10.115Z,100429.67
2019-04-05T15:35:38.584Z,100434.17
2019-04-05T15:38:07.055Z,100438.70
2019-04-05T15:40:35.559Z,100441.03
2019-04-05T15:43:04.021Z,100442.06
2019-04-05T15:45:32.490Z,100438.38
2019-04-05T15:48:01.004Z,100441.08
2019-04-05T15:50:29.502Z,100439.05
2019-04-05T15:52:59.730Z,100442.19
2019-04-05T15:55:28.207Z,100444.55
2019-04-05T15:57:56.669Z,100442.05
2019-04-05T16:00:40.066Z,100437.78
2019-04-05T16:03:08.521Z,100447.58
2019-04-05T16:05:36.995Z,100447.22
2019-04-05T16:08:05.575Z,100450.03
2019-04-05T16:10:34.052Z,100455.91
2019-04-05T16:13:02.543Z,100452.62
2019-04-05T16:15:31.180Z,100458.52
2019-04-05T16:17:59.653Z,100459.65
2019-04-05T16:20:28.196Z,100455.87
2019-04-05T16:22:56.706Z,100460.02
2019-04-05T16:25:25.189Z,100464.20
2019-04-05T16:27:53.671Z,100466.23
2019-04-05T16:30:22.194Z,100467.34
2019-04-05T16:32:50.666Z,100471.12
2019-04-05T16:35:19.212Z,100471.80
2019-04-05T16:37:47.762Z,100471.18
2019-04-05T16:40:16.765Z,100476.20
2019-04-05T16:42:45.233Z,100479.03
2019-04-05T16:45:14.271Z,100484.95
2019-04-05T16:47:42.741Z,100485.61
2019-04-05T16:50:11.768Z,100493.70
2019-04-05T16:52:45.091Z,100496.53
2019-04-05T16:55:10.607Z,100495.35
2019-04-05T16:57:39.161Z,100496.38
2019-04-05T17:00:12.727Z,100504.75
2019-04-05T17:02:41.275Z,100517.49
2019-04-05T17:05:09.878Z,100522.88
2019-04-05T17:07:38.391Z,100520.03
2019-04-05T17:10:07.493Z,100525.12
2019-04-05T17:12:36.079Z,100527.96
2019-04-05T17:15:07.283Z,100523.00
2019-04-05T17:17:36.231Z,100532.52
2019-04-05T17:20:05.941Z,100541.13
2019-04-05T17:22:34.453Z,100530.53
2019-04-05T17:25:03.213Z,100531.70
2019-04-05T17:27:31.683Z,100541.58
2019-04-05T17:30:00.190Z,100537.44
2019-04-05T17:32:28.677Z,100544.25
2019-04-05T17:34:57.139Z,100545.31
2019-04-05T17:37:26.829Z,100552.52
2019-04-05T17:39:55.616Z,100551.79
2019-04-05T17:42:24.083Z,100552.78
2019-04-05T17:44:52.634Z,100556.88
2019-04-05T17:47:21.100Z,100564.36
2019-04-05T17:49:49.575Z,100565.78
2019-04-05T17:52:18.094Z,100573.73
2019-04-05T17:54:46.562Z,100576.02
2019-04-05T17:57:15.172Z,100576.08
2019-04-05T17:59:44.207Z,100582.64
2019-04-05T18:02:12.687Z,100575.33
2019-04-05T18:04:41.228Z,100590.30
2019-04-05T18:07:09.893Z,100590.48
2019-04-05T18:09:38.381Z,100598.47
2019-04-05T18:12:06.859Z,100595.97
2019-04-05T18:14:35.419Z,100597.41
2019-04-05T18:17:03.984Z,100594.41
2019-04-05T18:19:32.772Z,100601.03
2019-04-05T18:22:01.292Z,100603.30
2019-04-05T18:24:29.774Z,100595.94
2019-04-05T18:26:58.309Z,100600.80
2019-04-05T18:29:26.798Z,100603.47
2019-04-05T18:31:55.282Z,100602.67
2019-04-05T18:34:23.760Z,100611.42
2019-04-05T18:36:52.279Z,100610.59
2019-04-05T18:39:20.751Z,100618.91
2019-04-05T18:41:49.225Z,100616.31
2019-04-05T18:44:17.736Z,100616.37
2019-04-05T18:46:46.214Z,100619.89
2019-04-05T18:49:14.682Z,100624.72
2019-04-05T18:51:43.255Z,100616.89
2019-04-05T18:54:11.732Z,100619.99
2019-04-05T18:56:40.227Z,100618.27
2019-04-05T18:59:08.754Z,100621.78
2019-04-05T19:01:37.246Z,100627.02
2019-04-05T19:04:05.835Z,100627.89
2019-04-05T19:06:34.444Z,100627.49
2019-04-05T19:09:04.565Z,100627.08
2019-04-05T19:11:33.050Z,100631.85
2019-04-05T19:14:01.758Z,100631.00
2019-04-05T19:16:30.213Z,100628.41
2019-04-05T19:18:58.736Z,100625.80
2019-04-05T19:21:27.673Z,100625.38
2019-04-05T19:23:56.137Z,100630.61
2019-04-05T19:26:24.616Z,100637.15
2019-04-05T19:28:53.133Z,100636.27
2019-04-05T19:48:53.289Z,100637.20
2019-04-05T19:51:21.810Z,100634.16
2019-04-05T19:54:00.675Z,100631.98
2019-04-05T19:56:20.475Z,100628.05
2019-04-05T19:58:49.033Z,100624.57
2019-04-05T20:01:17.474Z,100627.13
2019-04-05T20:03:45.951Z,100632.30
2019-04-05T20:06:14.504Z,100634.45
2019-04-05T20:08:42.989Z,100638.78
2019-04-05T20:11:11.478Z,100641.41
2019-04-05T20:13:39.992Z,100643.56
2019-04-05T20:16:08.485Z,100637.91
2019-04-05T20:18:36.953Z,100648.30
2019-04-05T20:21:05.470Z,100653.96
2019-04-05T20:23:33.948Z,100654.37
2019-04-05T20:26:02.462Z,100648.31
2019-04-05T20:28:30.928Z,100654.82
2019-04-05T20:30:59.415Z,100653.50
2019-04-05T20:33:27.885Z,100658.70
2019-04-05T20:35:56.403Z,100664.31
2019-04-05T20:38:24.879Z,100666.03
2019-04-05T20:40:53.360Z,100666.85
2019-04-05T20:43:21.882Z,100668.58
2019-04-05T20:45:50.359Z,100678.09
2019-04-05T20:48:18.832Z,100679.36
2019-04-05T20:50:47.341Z,100684.53
2019-04-05T20:53:15.824Z,100692.31
2019-04-05T20:55:44.301Z,100694.45
2019-04-05T20:58:12.811Z,100684.88
2019-04-05T21:00:41.288Z,100677.89
2019-04-05T21:03:09.745Z,100681.73
2019-04-05T21:05:38.261Z,100686.05
2019-04-05T21:08:06.731Z,100686.88
2019-04-05T21:10:35.200Z,100688.97
2019-04-05T21:13:04.151Z,100683.28
2019-04-05T21:15:32.702Z,100679.78
2019-04-05T21:18:01.166Z,100682.73
2019-04-05T21:20:29.690Z,100691.35
2019-04-05T21:22:59.245Z,100692.66
2019-04-05T21:25:27.722Z,100693.91
2019-04-05T21:27:56.214Z,100695.21
2019-04-05T21:30:24.681Z,100696.47
2019-04-05T21:32:53.177Z,100697.25
2019-04-05T21:35:21.696Z,100691.12
2019-04-05T21:37:50.241Z,100695.41
2019-04-05T21:40:19.008Z,100698.33
2019-04-05T21:42:47.529Z,100697.41
2019-04-05T21:45:16.002Z,100696.92
2019-04-05T21:47:44.482Z,100695.56
2019-04-05T21:50:13.053Z,100698.11
2019-04-05T21:52:41.523Z,100692.86
2019-04-05T21:55:10.064Z,100694.96
2019-04-05T21:57:38.590Z,100690.58
2019-04-05T22:00:20.375Z,100694.81
2019-04-05T22:02:48.746Z,100688.23
2019-04-05T22:05:17.236Z,100692.02
2019-04-05T22:07:45.707Z,100682.45
2019-04-05T22:10:14.287Z,100691.06
2019-04-05T22:12:42.773Z,100700.08
2019-04-05T22:15:11.249Z,100693.98
2019-04-05T22:17:39.772Z,100696.98
2019-04-05T22:20:08.417Z,100696.08
2019-04-05T22:22:36.890Z,100695.19
2019-04-05T22:25:07.021Z,100694.72
2019-04-05T22:27:35.485Z,100691.69
2019-04-05T22:30:05.807Z,100697.27
2019-04-05T22:32:34.331Z,100693.78
2019-04-05T22:35:02.807Z,100690.72
2019-04-05T22:37:31.288Z,100692.45
2019-04-05T22:39:59.793Z,100690.22
2019-04-05T22:42:28.276Z,100685.35
2019-04-05T22:44:56.744Z,100686.54
2019-04-05T22:47:25.241Z,100690.31
2019-04-05T22:49:53.715Z,100689.38
2019-04-05T22:52:22.185Z,100687.61
2019-04-05T22:54:50.691Z,100684.55
2019-04-05T22:57:19.175Z,100687.97
2019-04-05T22:59:47.647Z,100691.85
2019-04-05T23:02:16.148Z,100688.83
2019-04-05T23:04:44.617Z,100684.08
2019-04-05T23:07:13.167Z,100686.23
2019-04-05T23:09:41.735Z,100687.97
2019-04-05T23:12:10.221Z,100690.16
2019-04-05T23:14:38.822Z,100695.74
2019-04-05T23:17:07.355Z,100694.87
2019-04-05T23:19:35.856Z,100688.79
2019-04-05T23:22:04.395Z,100692.20
2019-04-05T23:24:32.985Z,100695.19
2019-04-05T23:27:02.471Z,100692.55
2019-04-05T23:29:30.956Z,100695.97
2019-04-05T23:31:59.472Z,100696.36
2019-04-05T23:34:27.949Z,100698.91
2019-04-05T23:36:56.408Z,100699.30
2019-04-05T23:39:24.922Z,100690.58
2019-04-05T23:41:53.372Z,100693.52
2019-04-05T23:44:21.831Z,100697.75
2019-04-05T23:46:52.609Z,100696.80
2019-04-05T23:49:20.535Z,100691.49
2019-04-05T23:51:49.016Z,100693.60
2019-04-05T23:54:17.520Z,100694.42
2019-04-05T23:56:45.986Z,100690.06
2019-04-05T23:59:14.611Z,100694.33
